sensor_id;sensor_type;location;lat;lon;timestamp;P1;durP1;ratioP1;P2;durP2;ratioP2
45867;SDS011;31582;45.490;7.860;2023-03-23T00:00:08;25.30;;;20.73;;
45867;SDS011;31582;45.490;7.860;2023-03-23T00:02:35;25.27;;;20.73;;
45867;SDS011;31582;45.490;7.860;2023-03-23T00:05:03;23.67;;;19.40;;
45867;SDS011;31582;45.490;7.860;2023-03-23T00:07:31;24.02;;;19.90;;
45867;SDS011;31582;45.490;7.860;2023-03-23T00:09:57;25.50;;;20.35;;
45867;SDS011;31582;45.490;7.860;2023-03-23T00:12:27;29.13;;;20.75;;
45867;SDS011;31582;45.490;7.860;2023-03-23T00:15:05;25.60;;;19.73;;
45867;SDS011;31582;45.490;7.860;2023-03-23T00:17:38;24.45;;;18.52;;
45867;SDS011;31582;45.490;7.860;2023-03-23T00:20:05;25.25;;;19.77;;
45867;SDS011;31582;45.490;7.860;2023-03-23T00:22:32;24.90;;;19.83;;
45867;SDS011;31582;45.490;7.860;2023-03-23T00:25:03;21.60;;;18.60;;
45867;SDS011;31582;45.490;7.860;2023-03-23T00:27:30;24.02;;;19.42;;
45867;SDS011;31582;45.490;7.860;2023-03-23T00:29:56;23.05;;;18.88;;
45867;SDS011;31582;45.490;7.860;2023-03-23T00:32:22;22.77;;;18.63;;
45867;SDS011;31582;45.490;7.860;2023-03-23T00:34:52;24.90;;;19.42;;
45867;SDS011;31582;45.490;7.860;2023-03-23T00:37:18;23.90;;;19.10;;
45867;SDS011;31582;45.490;7.860;2023-03-23T00:39:45;21.75;;;19.17;;
45867;SDS011;31582;45.490;7.860;2023-03-23T00:42:12;22.70;;;19.00;;
45867;SDS011;31582;45.490;7.860;2023-03-23T00:44:39;22.65;;;18.42;;
45867;SDS011;31582;45.490;7.860;2023-03-23T00:47:05;24.40;;;20.17;;
45867;SDS011;31582;45.490;7.860;2023-03-23T00:49:32;25.40;;;19.42;;
45867;SDS011;31582;45.490;7.860;2023-03-23T00:52:00;24.67;;;19.80;;
45867;SDS011;31582;45.490;7.860;2023-03-23T00:54:26;23.35;;;19.17;;
45867;SDS011;31582;45.490;7.860;2023-03-23T00:56:52;21.23;;;17.70;;
45867;SDS011;31582;45.490;7.860;2023-03-23T00:59:19;21.42;;;18.65;;
45867;SDS011;31582;45.490;7.860;2023-03-23T01:01:45;22.27;;;17.80;;
45867;SDS011;31582;45.490;7.860;2023-03-23T01:04:11;23.52;;;18.92;;
45867;SDS011;31582;45.490;7.860;2023-03-23T01:06:38;24.08;;;19.48;;
45867;SDS011;31582;45.490;7.860;2023-03-23T01:09:09;19.88;;;17.63;;
45867;SDS011;31582;45.490;7.860;2023-03-23T01:11:40;22.17;;;18.38;;
45867;SDS011;31582;45.490;7.860;2023-03-23T01:14:07;24.10;;;18.95;;
45867;SDS011;31582;45.490;7.860;2023-03-23T01:16:33;23.67;;;20.10;;
45867;SDS011;31582;45.490;7.860;2023-03-23T01:18:59;21.98;;;18.60;;
45867;SDS011;31582;45.490;7.860;2023-03-23T01:21:25;23.05;;;18.05;;
45867;SDS011;31582;45.490;7.860;2023-03-23T01:23:51;22.83;;;17.85;;
45867;SDS011;31582;45.490;7.860;2023-03-23T01:26:19;22.73;;;18.42;;
45867;SDS011;31582;45.490;7.860;2023-03-23T01:28:49;21.70;;;18.40;;
45867;SDS011;31582;45.490;7.860;2023-03-23T01:31:19;20.52;;;17.33;;
45867;SDS011;31582;45.490;7.860;2023-03-23T01:33:50;20.13;;;17.92;;
45867;SDS011;31582;45.490;7.860;2023-03-23T01:36:17;23.83;;;18.60;;
45867;SDS011;31582;45.490;7.860;2023-03-23T01:38:46;22.88;;;18.30;;
45867;SDS011;31582;45.490;7.860;2023-03-23T01:41:13;21.92;;;18.00;;
45867;SDS011;31582;45.490;7.860;2023-03-23T01:46:35;20.23;;;16.98;;
45867;SDS011;31582;45.490;7.860;2023-03-23T01:49:03;21.00;;;17.77;;
45867;SDS011;31582;45.490;7.860;2023-03-23T01:51:46;20.95;;;17.30;;
45867;SDS011;31582;45.490;7.860;2023-03-23T01:54:17;20.65;;;17.30;;
45867;SDS011;31582;45.490;7.860;2023-03-23T01:56:47;21.45;;;17.63;;
45867;SDS011;31582;45.490;7.860;2023-03-23T01:59:34;21.77;;;17.48;;
45867;SDS011;31582;45.490;7.860;2023-03-23T02:02:01;20.55;;;17.25;;
